Time;durP1;ratioP1;P1;durP2;ratioP2;P2;SDS_P1;SDS_P2;PMS_P1;PMS_P2;Temp;Humidity;BMP_temperature;BMP_pressure;BME280_temperature;BME280_humidity;BME280_pressure;Samples;Min_cycle;Max_cycle;Signal;HPM_P1;HPM_P2
2022/09/22 00:00:37;;;;;;;5.97;2.22;;;8.80;99.90;;;;;;5081611;28;20484;-61
2022/09/22 00:03:03;;;;;;;4.75;2.08;;;8.80;99.90;;;;;;5084620;28;20109;-64
2022/09/22 00:05:28;;;;;;;5.30;1.83;;;8.80;99.90;;;;;;5088821;28;20047;-65
2022/09/22 00:07:54;;;;;;;3.05;1.90;;;8.70;99.90;;;;;;5067468;28;20046;-62
2022/09/22 00:10:20;;;;;;;3.95;1.88;;;8.70;99.90;;;;;;5088202;28;20055;-72
2022/09/22 00:12:50;;;;;;;5.22;1.50;;;8.70;99.90;;;;;;5068896;28;20132;-62
2022/09/22 00:15:16;;;;;;;2.83;1.60;;;8.70;99.90;;;;;;5070319;28;20046;-66
2022/09/22 00:17:42;;;;;;;2.30;1.52;;;8.60;99.90;;;;;;5083407;28;20107;-64
2022/09/22 00:20:10;;;;;;;2.28;1.40;;;8.60;99.90;;;;;;5086685;28;20047;-62
2022/09/22 00:22:35;;;;;;;2.28;1.48;;;8.60;99.90;;;;;;5083577;28;20097;-63
2022/09/22 00:25:01;;;;;;;2.58;1.45;;;8.60;99.90;;;;;;5079704;28;20032;-66
2022/09/22 00:27:27;;;;;;;2.25;1.42;;;8.60;99.90;;;;;;5070174;28;20039;-62
2022/09/22 00:29:52;;;;;;;1.80;1.40;;;8.60;99.90;;;;;;5088599;28;20066;-62
2022/09/22 00:32:18;;;;;;;2.80;1.50;;;8.50;99.90;;;;;;5069257;28;20056;-62
2022/09/22 00:34:44;;;;;;;3.17;1.80;;;8.60;99.90;;;;;;5061830;28;20043;-62
2022/09/22 00:37:11;;;;;;;3.35;1.58;;;8.60;99.90;;;;;;5081126;28;20123;-62
2022/09/22 00:39:37;;;;;;;2.28;1.50;;;8.50;99.90;;;;;;5065439;28;20043;-61
2022/09/22 00:42:03;;;;;;;2.33;1.50;;;8.50;99.90;;;;;;5084118;28;20396;-62
2022/09/22 00:44:30;;;;;;;4.43;1.55;;;8.40;99.90;;;;;;5087225;28;20089;-62
2022/09/22 00:47:24;;;;;;;1.83;1.40;;;8.40;99.90;;;;;;5070873;28;20055;-70
2022/09/22 00:50:14;;;;;;;2.70;1.50;;;8.40;99.90;;;;;;5071154;28;20040;-63
2022/09/22 00:52:55;;;;;;;2.50;1.52;;;8.40;99.90;;;;;;5081223;28;20461;-66
2022/09/22 00:55:39;;;;;;;5.97;1.75;;;8.30;99.90;;;;;;5064093;28;20043;-62
2022/09/22 00:58:15;;;;;;;4.55;1.83;;;8.30;99.90;;;;;;5080802;28;20051;-62
2022/09/22 01:00:42;;;;;;;3.83;1.90;;;8.30;99.90;;;;;;5086390;28;20420;-62
2022/09/22 01:03:12;;;;;;;3.20;1.90;;;8.30;99.90;;;;;;5085110;28;20531;-62
2022/09/22 01:05:41;;;;;;;3.10;1.70;;;8.20;99.90;;;;;;5066905;28;20032;-67
2022/09/22 01:08:07;;;;;;;3.30;1.80;;;8.20;99.90;;;;;;5088698;28;20145;-64
2022/09/22 01:10:33;;;;;;;3.55;1.80;;;8.20;99.90;;;;;;5065714;28;20051;-63
2022/09/22 01:13:12;;;;;;;3.42;1.90;;;8.20;99.90;;;;;;5081189;28;20032;-65
2022/09/22 01:16:01;;;;;;;4.22;1.70;;;8.20;99.90;;;;;;5082542;28;20039;-61
2022/09/22 01:18:44;;;;;;;4.57;1.77;;;8.20;99.90;;;;;;5075069;28;20041;-63
2022/09/22 01:21:32;;;;;;;3.67;1.70;;;8.20;99.90;;;;;;5077640;28;20040;-68
2022/09/22 01:24:06;;;;;;;3.92;1.90;;;8.10;99.90;;;;;;5086878;28;20042;-62
2022/09/22 01:27:00;;;;;;;4.40;1.95;;;8.10;99.90;;;;;;5081766;28;20036;-62
2022/09/22 01:29:50;;;;;;;3.83;2.00;;;8.10;99.90;;;;;;5081854;28;20044;-63
2022/09/22 01:32:31;;;;;;;2.75;1.80;;;8.10;99.90;;;;;;5070277;28;20040;-63
2022/09/22 01:35:09;;;;;;;4.78;2.28;;;8.10;99.90;;;;;;5085575;28;20262;-63
2022/09/22 01:38:13;;;;;;;2.40;1.67;;;8.00;99.90;;;;;;5086055;28;20066;-68
2022/09/22 01:40:56;;;;;;;2.88;2.00;;;8.00;99.90;;;;;;5063527;28;20377;-63
2022/09/22 01:43:52;;;;;;;3.65;2.08;;;8.00;99.90;;;;;;5060936;28;20043;-64
2022/09/22 01:46:36;;;;;;;5.38;2.25;;;8.00;99.90;;;;;;5078109;28;20488;-63
2022/09/22 01:49:06;;;;;;;3.85;2.08;;;7.90;99.90;;;;;;5082142;28;20040;-66
2022/09/22 01:51:52;;;;;;;5.07;2.25;;;7.90;99.90;;;;;;5079941;28;20539;-63
2022/09/22 01:54:24;;;;;;;3.60;2.00;;;7.90;99.90;;;;;;5086330;28;20125;-71
2022/09/22 01:56:56;;;;;;;6.32;2.30;;;7.90;99.90;;;;;;5058565;28;20051;-68
2022/09/22 01:59:27;;;;;;;4.20;1.83;;;7.90;99.90;;;;;;5061850;28;20124;-67
2022/09/22 02:02:01;;;;;;;2.50;1.70;;;7.90;99.90;;;;;;5061907;28;20069;-63
2022/09/22 02:04:45;;;;;;;2.25;1.70;;;7.80;99.90;;;;;;5080361;28;20036;-63
2022/09/22 02:07:24;;;;;;;4.28;2.00;;;7.80;99.90;;;;;;5062462;28;20037;-63
2022/09/22 02:09:50;;;;;;;3.55;2.00;;;7.80;99.90;;;;;;5065748;28;20044;-69
2022/09/22 02:12:17;;;;;;;4.05;2.00;;;7.80;99.90;;;;;;5080968;28;20392;-63
2022/09/22 02:14:44;;;;;;;3.38;2.00;;;7.70;99.90;;;;;;5087621;28;20437;-63
2022/09/22 02:17:12;;;;;;;4.30;2.17;;;7.70;99.90;;;;;;5069916;28;20036;-69
2022/09/22 02:19:39;;;;;;;4.18;2.05;;;7.70;99.90;;;;;;5082933;28;20032;-63
2022/09/22 02:22:07;;;;;;;5.47;2.20;;;7.70;99.90;;;;;;5078504;28;20111;-63
2022/09/22 02:24:34;;;;;;;4.47;2.20;;;7.70;99.90;;;;;;5079253;28;20082;-66
2022/09/22 02:27:04;;;;;;;3.58;2.50;;;7.70;99.90;;;;;;5069097;28;20036;-63
2022/09/22 02:29:34;;;;;;;3.47;2.30;;;7.70;99.90;;;;;;5073174;28;20264;-66
2022/09/22 02:32:03;;;;;;;3.28;2.13;;;7.70;99.90;;;;;;5087057;28;20036;-63
2022/09/22 02:34:30;;;;;;;3.42;2.10;;;7.60;99.90;;;;;;5088754;28;20032;-63
2022/09/22 02:37:20;;;;;;;4.18;2.40;;;7.60;99.90;;;;;;5073585;28;20040;-63
2022/09/22 02:39:54;;;;;;;3.65;2.25;;;7.60;99.90;;;;;;5072888;28;20074;-62
2022/09/22 02:42:28;;;;;;;5.55;2.20;;;7.60;99.90;;;;;;5067577;28;20078;-62
2022/09/22 02:45:00;;;;;;;5.30;2.50;;;7.50;99.90;;;;;;5091901;28;20035;-63
2022/09/22 02:47:50;;;;;;;4.75;2.95;;;7.50;99.90;;;;;;5063229;28;20045;-63
2022/09/22 02:50:19;;;;;;;4.00;2.08;;;7.50;99.90;;;;;;5087608;28;20162;-62
2022/09/22 02:52:44;;;;;;;4.38;2.40;;;7.50;99.90;;;;;;5085929;28;20040;-62
2022/09/22 02:55:12;;;;;;;5.57;2.63;;;7.50;99.90;;;;;;5072403;28;20473;-62
2022/09/22 02:57:37;;;;;;;4.50;2.50;;;7.50;99.90;;;;;;5081957;28;20041;-66
2022/09/22 03:00:04;;;;;;;4.47;2.38;;;7.50;99.90;;;;;;5082211;28;20141;-66
2022/09/22 03:02:30;;;;;;;4.25;2.38;;;7.40;99.90;;;;;;5083687;28;20073;-63
2022/09/22 03:04:56;;;;;;;3.85;2.30;;;7.40;99.90;;;;;;5089062;28;20161;-64
2022/09/22 03:07:22;;;;;;;3.67;2.20;;;7.40;99.90;;;;;;5090670;28;20079;-64
2022/09/22 03:09:48;;;;;;;3.65;1.90;;;7.40;99.90;;;;;;5084638;28;20499;-66
2022/09/22 03:12:13;;;;;;;4.07;2.20;;;7.30;99.90;;;;;;5092464;28;20075;-65
2022/09/22 03:14:39;;;;;;;3.45;1.92;;;7.40;99.90;;;;;;5072716;28;20032;-63
2022/09/22 03:17:04;;;;;;;3.55;1.83;;;7.40;99.90;;;;;;5083624;28;20032;-62
2022/09/22 03:19:30;;;;;;;2.72;2.08;;;7.40;99.90;;;;;;5088727;28;20036;-63
2022/09/22 03:21:56;;;;;;;2.60;1.90;;;7.40;99.90;;;;;;5079169;28;20036;-70
2022/09/22 03:24:21;;;;;;;3.58;2.00;;;7.30;99.90;;;;;;5087505;28;20060;-62
2022/09/22 03:26:47;;;;;;;2.75;1.80;;;7.30;99.90;;;;;;5061617;28;20031;-62
2022/09/22 03:29:13;;;;;;;2.15;1.65;;;7.40;99.90;;;;;;5071110;28;20433;-62
2022/09/22 03:31:38;;;;;;;2.88;1.90;;;7.30;99.90;;;;;;5088243;28;20497;-66
2022/09/22 03:34:04;;;;;;;4.57;2.33;;;7.30;99.90;;;;;;5064341;28;22590;-62
2022/09/22 03:36:29;;;;;;;3.65;2.60;;;7.30;99.90;;;;;;5085702;28;20391;-62
2022/09/22 03:38:55;;;;;;;5.35;2.65;;;7.30;99.90;;;;;;5085956;28;20033;-63
2022/09/22 03:41:20;;;;;;;7.13;2.72;;;7.30;99.90;;;;;;5089828;28;20040;-65
2022/09/22 03:43:46;;;;;;;4.45;2.83;;;7.30;99.90;;;;;;5069333;28;20040;-63
2022/09/22 03:46:13;;;;;;;5.53;2.65;;;7.20;99.90;;;;;;5089439;28;20740;-62
2022/09/22 03:48:39;;;;;;;2.88;1.90;;;7.20;99.90;;;;;;5083557;28;20101;-62
2022/09/22 03:51:04;;;;;;;4.88;2.60;;;7.20;99.90;;;;;;5090374;28;20040;-62
2022/09/22 03:53:30;;;;;;;2.65;1.90;;;7.20;99.90;;;;;;5088467;28;20042;-67
2022/09/22 03:56:07;;;;;;;2.50;1.92;;;7.20;99.90;;;;;;5090843;28;20024;-62
2022/09/22 03:58:33;;;;;;;3.60;2.10;;;7.20;99.90;;;;;;5084130;28;20035;-68
2022/09/22 04:00:59;;;;;;;3.35;2.10;;;7.20;99.90;;;;;;5085265;28;20418;-68
2022/09/22 04:03:25;;;;;;;2.50;1.90;;;7.20;99.90;;;;;;5090504;28;20032;-62
2022/09/22 04:05:50;;;;;;;2.92;2.17;;;7.20;99.90;;;;;;5083657;28;20081;-62
2022/09/22 04:08:17;;;;;;;2.65;1.73;;;7.20;99.90;;;;;;5085971;28;20492;-62
2022/09/22 04:10:45;;;;;;;4.50;2.30;;;7.10;99.90;;;;;;5081665;28;20036;-62
2022/09/22 04:13:12;;;;;;;3.63;2.63;;;7.10;99.90;;;;;;5063586;28;20480;-62
2022/09/22 04:15:37;;;;;;;3.65;2.35;;;7.10;99.90;;;;;;5064315;28;20032;-68
2022/09/22 04:18:03;;;;;;;6.00;2.70;;;7.10;99.90;;;;;;5088923;28;20036;-62
2022/09/22 04:20:29;;;;;;;5.35;2.90;;;7.10;99.90;;;;;;5084352;28;20120;-62
2022/09/22 04:22:55;;;;;;;4.28;2.80;;;7.10;99.90;;;;;;5067677;28;20515;-63
2022/09/22 04:25:21;;;;;;;5.25;3.00;;;7.00;99.90;;;;;;5079673;28;20044;-64
2022/09/22 04:27:46;;;;;;;4.15;3.05;;;7.00;99.90;;;;;;5062577;28;20032;-64
2022/09/22 04:30:12;;;;;;;4.63;3.00;;;7.00;99.90;;;;;;5084158;28;20039;-64
2022/09/22 04:32:38;;;;;;;5.32;3.03;;;7.00;99.90;;;;;;5085360;28;20880;-64
2022/09/22 04:35:05;;;;;;;6.95;4.03;;;7.00;99.90;;;;;;5083218;28;20047;-64
2022/09/22 04:37:30;;;;;;;4.30;2.97;;;7.00;99.90;;;;;;5084788;28;20046;-64
2022/09/22 04:39:58;;;;;;;4.88;3.10;;;7.00;99.90;;;;;;5068524;28;20040;-64
2022/09/22 04:42:23;;;;;;;4.38;3.10;;;7.00;99.90;;;;;;5089179;28;20437;-64
2022/09/22 04:44:49;;;;;;;5.32;3.17;;;7.00;99.90;;;;;;5086050;28;20110;-64
2022/09/22 04:47:14;;;;;;;5.88;3.17;;;6.90;99.90;;;;;;5051956;28;20059;-64
2022/09/22 04:49:40;;;;;;;6.45;3.45;;;6.90;99.90;;;;;;5086076;28;20028;-66
2022/09/22 04:52:05;;;;;;;6.15;3.47;;;6.90;99.90;;;;;;5085511;28;20043;-66
2022/09/22 04:54:31;;;;;;;7.22;3.97;;;6.90;99.90;;;;;;5083304;28;20132;-65
2022/09/22 04:56:57;;;;;;;6.03;3.38;;;6.90;99.90;;;;;;5086888;28;20036;-65
2022/09/22 04:59:22;;;;;;;5.65;3.63;;;6.90;99.90;;;;;;5066070;28;20024;-66
2022/09/22 05:01:48;;;;;;;7.18;4.32;;;6.90;99.90;;;;;;5090082;28;20047;-66
2022/09/22 05:04:13;;;;;;;5.70;3.97;;;6.90;99.90;;;;;;5090785;28;20124;-65
2022/09/22 05:06:41;;;;;;;8.43;4.35;;;6.90;99.90;;;;;;5081811;28;20064;-66
2022/09/22 05:09:06;;;;;;;6.22;4.47;;;6.90;99.90;;;;;;5088104;28;20479;-66
2022/09/22 05:11:33;;;;;;;7.60;4.10;;;6.90;99.90;;;;;;5084214;28;20036;-64
2022/09/22 05:13:58;;;;;;;7.38;4.60;;;6.90;99.90;;;;;;5086112;28;20040;-66
2022/09/22 05:16:25;;;;;;;6.28;4.28;;;6.80;99.90;;;;;;5082780;28;20044;-65
2022/09/22 05:18:51;;;;;;;10.98;4.70;;;6.80;99.90;;;;;;5082162;28;20114;-65
2022/09/22 05:21:20;;;;;;;8.85;4.75;;;6.90;99.90;;;;;;5062909;28;20528;-65
2022/09/22 05:23:46;;;;;;;10.20;5.38;;;6.80;99.90;;;;;;5079510;28;20454;-65
2022/09/22 05:26:11;;;;;;;9.02;5.78;;;6.80;99.90;;;;;;5046786;28;20396;-65
2022/09/22 05:28:37;;;;;;;8.40;5.22;;;6.80;99.90;;;;;;5082526;28;20039;-66
2022/09/22 05:31:03;;;;;;;8.95;5.70;;;6.80;99.90;;;;;;5070918;28;20036;-66
2022/09/22 05:33:29;;;;;;;7.18;4.93;;;6.80;99.90;;;;;;5079851;28;20041;-64
2022/09/22 05:35:55;;;;;;;8.52;5.22;;;6.80;99.90;;;;;;5087790;28;20055;-66
2022/09/22 05:38:20;;;;;;;8.77;5.32;;;6.80;99.90;;;;;;5066315;28;20083;-65
2022/09/22 05:40:46;;;;;;;8.48;5.45;;;6.80;99.90;;;;;;5085283;28;20041;-64
2022/09/22 05:43:12;;;;;;;7.53;5.30;;;6.80;99.90;;;;;;5083980;28;20032;-63
2022/09/22 05:45:38;;;;;;;8.65;5.78;;;6.70;99.90;;;;;;5084394;28;20044;-65
2022/09/22 05:48:04;;;;;;;7.72;5.50;;;6.70;99.90;;;;;;5087275;28;20043;-66
2022/09/22 05:50:30;;;;;;;8.15;5.78;;;6.70;99.90;;;;;;5083287;28;20119;-65
2022/09/22 05:53:04;;;;;;;8.35;5.47;;;6.70;99.90;;;;;;5061554;28;20570;-66
2022/09/22 05:55:29;;;;;;;8.85;5.80;;;6.80;99.90;;;;;;5083615;28;20347;-66
2022/09/22 05:57:56;;;;;;;8.52;5.65;;;6.80;99.90;;;;;;5083505;28;20527;-66
2022/09/22 06:00:22;;;;;;;8.27;6.07;;;6.80;99.90;;;;;;5082480;28;20032;-66
2022/09/22 06:02:47;;;;;;;7.70;5.25;;;6.80;99.90;;;;;;5081760;28;20036;-66
2022/09/22 06:05:13;;;;;;;8.48;5.60;;;6.80;99.90;;;;;;5088054;28;20044;-65
2022/09/22 06:07:38;;;;;;;7.22;5.32;;;6.80;99.90;;;;;;5083172;28;20169;-65
2022/09/22 06:10:05;;;;;;;7.60;5.20;;;6.80;99.90;;;;;;5051070;28;20090;-66
2022/09/22 06:12:30;;;;;;;6.50;5.03;;;6.80;99.90;;;;;;5083608;28;20035;-63
2022/09/22 06:14:56;;;;;;;9.15;5.30;;;6.80;99.90;;;;;;5083888;28;20272;-64
2022/09/22 06:17:22;;;;;;;7.88;5.38;;;6.80;99.90;;;;;;5056311;28;20055;-63
2022/09/22 06:19:49;;;;;;;10.77;5.50;;;6.80;99.90;;;;;;5081285;28;20127;-65
2022/09/22 06:22:18;;;;;;;7.03;5.22;;;6.80;99.90;;;;;;5064975;28;20595;-66
2022/09/22 06:24:43;;;;;;;7.07;5.10;;;6.80;99.90;;;;;;5086432;28;20365;-66
2022/09/22 06:27:09;;;;;;;8.90;5.30;;;6.80;99.90;;;;;;5080354;28;20119;-65
2022/09/22 06:29:36;;;;;;;6.90;4.93;;;6.90;99.90;;;;;;5079176;28;20032;-63
2022/09/22 06:32:03;;;;;;;8.60;5.03;;;6.90;99.90;;;;;;5082652;28;20081;-66
2022/09/22 06:34:29;;;;;;;6.72;4.70;;;6.90;99.90;;;;;;5088406;28;20116;-63
2022/09/22 06:36:55;;;;;;;5.65;4.53;;;7.00;99.90;;;;;;5086408;28;20122;-66
2022/09/22 06:39:22;;;;;;;7.88;5.10;;;7.00;99.90;;;;;;5075071;28;20050;-61
2022/09/22 06:41:48;;;;;;;7.50;5.18;;;7.00;99.90;;;;;;5069105;28;20140;-64
2022/09/22 06:44:14;;;;;;;7.65;5.30;;;7.10;99.90;;;;;;5088445;28;20119;-63
2022/09/22 06:46:40;;;;;;;7.07;5.13;;;7.10;99.90;;;;;;5082913;28;20048;-64
2022/09/22 06:49:06;;;;;;;7.80;5.90;;;7.10;99.90;;;;;;5074100;28;20116;-66
2022/09/22 06:51:34;;;;;;;11.02;5.88;;;7.20;99.90;;;;;;5079188;28;20496;-66
2022/09/22 06:54:04;;;;;;;8.05;5.57;;;7.20;99.90;;;;;;5085439;28;20075;-66
2022/09/22 06:56:33;;;;;;;9.45;5.88;;;7.30;99.90;;;;;;5086861;28;20348;-66
2022/09/22 06:58:59;;;;;;;10.88;6.43;;;7.30;99.90;;;;;;5058626;28;20047;-65
2022/09/22 07:01:27;;;;;;;10.02;6.72;;;7.40;99.90;;;;;;5089146;28;20384;-65
2022/09/22 07:03:53;;;;;;;11.13;7.40;;;7.40;99.90;;;;;;5060919;28;20120;-65
2022/09/22 07:06:19;;;;;;;14.45;8.75;;;7.50;99.90;;;;;;5088049;28;20501;-66
2022/09/22 07:08:47;;;;;;;13.05;8.00;;;7.50;99.90;;;;;;5077898;28;20035;-65
2022/09/22 07:11:16;;;;;;;11.43;8.30;;;7.60;99.90;;;;;;5070601;28;20439;-65
2022/09/22 07:13:43;;;;;;;11.32;8.43;;;7.60;99.90;;;;;;5080350;28;20075;-66
2022/09/22 07:16:16;;;;;;;14.82;9.82;;;7.60;99.90;;;;;;5063587;28;20495;-63
2022/09/22 07:18:46;;;;;;;13.90;11.38;;;7.70;99.90;;;;;;5076009;28;20032;-66
2022/09/22 07:21:22;;;;;;;16.27;10.57;;;7.80;99.90;;;;;;5084298;28;20431;-66
2022/09/22 07:23:49;;;;;;;14.25;10.10;;;7.90;99.90;;;;;;5085106;28;20040;-66
2022/09/22 07:26:21;;;;;;;15.20;9.90;;;7.90;99.90;;;;;;5073799;28;20055;-65
2022/09/22 07:28:50;;;;;;;14.02;9.98;;;7.90;99.90;;;;;;5083576;28;20031;-66
2022/09/22 07:31:16;;;;;;;17.08;11.82;;;8.00;99.90;;;;;;5081282;28;20037;-66
2022/09/22 07:33:44;;;;;;;16.48;11.32;;;8.10;99.90;;;;;;5076857;28;20439;-66
2022/09/22 07:36:13;;;;;;;21.15;12.10;;;8.20;99.90;;;;;;5085980;28;20043;-65
2022/09/22 07:38:41;;;;;;;15.82;11.25;;;8.20;99.90;;;;;;5071180;28;20044;-64
2022/09/22 07:41:12;;;;;;;17.33;11.85;;;8.30;99.90;;;;;;5051374;28;20381;-65
2022/09/22 07:43:39;;;;;;;16.23;12.13;;;8.40;99.90;;;;;;5090982;28;20036;-65
2022/09/22 07:46:06;;;;;;;17.67;12.77;;;8.50;99.90;;;;;;5085270;28;20047;-66
2022/09/22 07:48:35;;;;;;;18.13;12.23;;;8.60;99.90;;;;;;5071748;28;20039;-66
2022/09/22 07:51:05;;;;;;;17.52;11.27;;;8.70;99.90;;;;;;5091775;28;20040;-66
2022/09/22 07:53:31;;;;;;;17.42;11.98;;;8.80;99.90;;;;;;5092391;28;20395;-66
2022/09/22 07:56:11;;;;;;;18.85;12.07;;;8.80;99.90;;;;;;5089870;28;20040;-65
2022/09/22 07:58:55;;;;;;;16.50;11.38;;;8.90;99.90;;;;;;5054728;28;20434;-65
2022/09/22 08:01:24;;;;;;;17.77;11.80;;;9.00;99.90;;;;;;5090148;28;20089;-66
2022/09/22 08:03:51;;;;;;;14.50;10.27;;;9.20;99.90;;;;;;5091454;28;20098;-66
2022/09/22 08:06:18;;;;;;;13.77;11.05;;;9.20;99.90;;;;;;5088472;28;20043;-65
2022/09/22 08:08:46;;;;;;;17.00;10.57;;;9.30;99.90;;;;;;5089779;28;20039;-66
2022/09/22 08:11:16;;;;;;;20.17;10.82;;;9.40;99.90;;;;;;5090045;28;20454;-63
2022/09/22 08:13:52;;;;;;;13.50;10.35;;;9.50;99.90;;;;;;5090586;28;20036;-64
2022/09/22 08:16:19;;;;;;;14.82;10.43;;;9.60;99.90;;;;;;5087115;28;20400;-66
2022/09/22 08:18:50;;;;;;;15.98;9.93;;;9.80;99.90;;;;;;5089056;28;20043;-66
2022/09/22 08:21:19;;;;;;;11.57;9.13;;;9.90;99.90;;;;;;5090302;28;20463;-65
2022/09/22 08:23:45;;;;;;;14.63;9.75;;;10.00;99.90;;;;;;5090188;28;20090;-66
2022/09/22 08:26:11;;;;;;;20.17;9.13;;;10.10;99.90;;;;;;5089465;28;20500;-65
2022/09/22 08:28:39;;;;;;;16.55;9.18;;;10.20;99.90;;;;;;5070372;28;20234;-66
2022/09/22 08:31:11;;;;;;;13.55;9.75;;;10.20;99.90;;;;;;5089838;28;20110;-66
2022/09/22 08:33:39;;;;;;;16.08;8.98;;;10.30;99.90;;;;;;5071281;28;20480;-66
2022/09/22 08:36:06;;;;;;;11.27;7.55;;;10.40;99.90;;;;;;5088355;28;20040;-64
2022/09/22 08:38:33;;;;;;;12.15;8.02;;;10.50;99.90;;;;;;5088780;28;20057;-66
2022/09/22 08:41:18;;;;;;;12.23;8.25;;;10.60;99.90;;;;;;5089131;28;20057;-66
2022/09/22 08:44:02;;;;;;;12.63;7.90;;;10.70;99.90;;;;;;5087313;28;20032;-66
2022/09/22 08:46:37;;;;;;;11.90;7.35;;;10.70;99.90;;;;;;5086404;28;20038;-66
2022/09/22 08:52:07;;;;;;;11.38;7.18;;;11.00;99.90;;;;;;5081590;28;20044;-65
2022/09/22 08:54:34;;;;;;;10.07;7.28;;;11.00;99.90;;;;;;5070952;28;20047;-63
2022/09/22 08:57:43;;;;;;;14.50;7.13;;;11.20;99.90;;;;;;5087148;28;20495;-65
2022/09/22 09:00:15;;;;;;;10.82;7.07;;;11.30;99.90;;;;;;5060447;28;20475;-66
2022/09/22 09:03:02;;;;;;;8.75;6.30;;;11.40;99.90;;;;;;5076691;28;20071;-66
2022/09/22 09:05:47;;;;;;;9.90;6.97;;;11.50;99.90;;;;;;5066383;28;20085;-65
2022/09/22 09:08:32;;;;;;;13.43;7.35;;;11.60;99.90;;;;;;5080063;28;20441;-66
2022/09/22 09:11:25;;;;;;;15.05;6.97;;;11.70;99.90;;;;;;5059912;28;20046;-63
2022/09/22 09:14:08;;;;;;;11.23;6.18;;;11.90;99.90;;;;;;5070592;28;20089;-65
2022/09/22 09:16:46;;;;;;;11.98;6.07;;;12.00;99.90;;;;;;5086810;28;20553;-66
2022/09/22 09:19:40;;;;;;;10.05;6.57;;;12.10;99.90;;;;;;5060661;28;20051;-65
2022/09/22 09:22:12;;;;;;;11.10;6.57;;;12.20;99.90;;;;;;5081138;28;20055;-65
2022/09/22 09:24:44;;;;;;;13.00;6.30;;;12.40;99.90;;;;;;5067521;28;20324;-63
2022/09/22 09:27:18;;;;;;;9.60;6.55;;;12.50;99.90;;;;;;5090103;28;20032;-63
2022/09/22 09:30:05;;;;;;;10.82;7.00;;;12.60;99.90;;;;;;5088947;28;20123;-66
2022/09/22 09:32:59;;;;;;;9.00;5.95;;;12.80;99.90;;;;;;5087177;28;20068;-66
2022/09/22 09:35:49;;;;;;;12.00;6.28;;;12.90;99.90;;;;;;5072567;28;20112;-66
2022/09/22 09:38:17;;;;;;;12.57;5.45;;;13.10;99.90;;;;;;5088602;28;20068;-64
2022/09/22 09:40:51;;;;;;;9.82;5.32;;;13.30;99.90;;;;;;5089670;28;20067;-63
2022/09/22 09:43:19;;;;;;;7.95;5.13;;;13.50;99.90;;;;;;5070999;28;20036;-65
2022/09/22 09:46:11;;;;;;;16.83;6.22;;;13.70;99.90;;;;;;5088068;28;20036;-64
2022/09/22 09:48:59;;;;;;;10.15;6.07;;;14.00;99.90;;;;;;5032120;28;20552;-65
2022/09/22 09:51:27;;;;;;;12.90;5.55;;;14.20;99.90;;;;;;5087372;28;20089;-66
2022/09/22 09:53:54;;;;;;;12.75;4.95;;;14.50;99.90;;;;;;5061771;28;20041;-65
2022/09/22 09:56:26;;;;;;;9.43;4.88;;;14.70;99.90;;;;;;5062189;28;20040;-66
2022/09/22 10:01:46;;;;;;;7.88;4.10;;;15.00;99.90;;;;;;5076346;28;20063;-66
2022/09/22 10:04:32;;;;;;;11.82;4.90;;;15.20;99.90;;;;;;5084614;28;20032;-66
2022/09/22 10:07:10;;;;;;;7.10;4.10;;;15.30;99.90;;;;;;5060481;28;20106;-66
2022/09/22 10:09:36;;;;;;;7.03;4.03;;;15.40;99.90;;;;;;5085843;28;20036;-66
2022/09/22 10:12:03;;;;;;;11.50;3.92;;;15.50;99.90;;;;;;5093208;28;20484;-66
2022/09/22 10:14:31;;;;;;;9.27;4.18;;;15.50;99.90;;;;;;5095898;28;20047;-66
2022/09/22 10:16:57;;;;;;;7.60;3.97;;;15.60;99.90;;;;;;5095458;28;20055;-66
2022/09/22 10:19:28;;;;;;;7.72;3.38;;;15.60;99.90;;;;;;5074813;28;20491;-66
2022/09/22 10:22:26;;;;;;;6.07;2.78;;;15.70;99.90;;;;;;5075620;28;20082;-63
2022/09/22 10:24:58;;;;;;;9.50;4.03;;;15.90;99.90;;;;;;5091572;28;20549;-65
2022/09/22 10:27:26;;;;;;;7.03;3.50;;;15.90;99.90;;;;;;5058833;28;20315;-62
2022/09/22 10:30:10;;;;;;;7.38;3.20;;;16.00;99.90;;;;;;5076183;28;20283;-62
2022/09/22 10:32:36;;;;;;;5.38;2.70;;;16.10;99.90;;;;;;5090451;28;20067;-62
2022/09/22 10:35:29;;;;;;;7.47;3.55;;;16.20;99.90;;;;;;5083828;28;20492;-66
2022/09/22 10:38:00;;;;;;;;;;;16.30;99.90;;;;;;5063429;28;20465;-63
2022/09/22 10:40:27;;;;;;;10.48;4.05;;;16.40;98.70;;;;;;5074150;28;19926;-62
2022/09/22 10:42:56;;;;;;;6.95;3.67;;;16.50;99.90;;;;;;5083640;28;20079;-69
2022/09/22 10:45:40;;;;;;;6.00;3.97;;;16.60;99.90;;;;;;5089544;28;20527;-62
2022/09/22 10:48:31;;;;;;;8.63;3.67;;;16.60;98.80;;;;;;5089573;28;20396;-62
2022/09/22 10:51:14;;;;;;;6.80;3.47;;;16.60;99.00;;;;;;5090565;28;20058;-65
2022/09/22 10:54:04;;;;;;;6.50;3.95;;;16.80;99.10;;;;;;5066042;28;20048;-61
2022/09/22 10:56:37;;;;;;;6.07;3.67;;;16.80;99.50;;;;;;5070889;28;20051;-62
2022/09/22 10:59:24;;;;;;;5.93;3.80;;;17.00;99.50;;;;;;5058310;28;20040;-63
2022/09/22 11:02:58;;;;;;;7.18;3.90;;;17.10;99.50;;;;;;5074214;28;20047;-62
2022/09/22 11:14:34;;;;;;;8.70;4.85;;;17.30;97.50;;;;;;5082125;28;20044;-62
2022/09/22 11:17:21;;;;;;;7.22;4.60;;;17.40;97.50;;;;;;5088602;28;20368;-65
2022/09/22 11:19:58;;;;;;;7.43;4.15;;;17.50;94.90;;;;;;5079336;28;20036;-62
2022/09/22 11:22:50;;;;;;;6.72;4.30;;;17.50;95.50;;;;;;5068555;28;20040;-62
2022/09/22 11:25:38;;;;;;;7.73;3.73;;;17.60;94.00;;;;;;5063760;28;20041;-66
2022/09/22 11:28:03;;;;;;;4.60;3.25;;;17.60;93.10;;;;;;5082046;28;20274;-68
2022/09/22 11:30:51;;;;;;;8.30;3.17;;;17.60;94.00;;;;;;5071786;28;20036;-62
2022/09/22 11:34:06;;;;;;;9.65;3.78;;;17.70;93.30;;;;;;5090602;28;20148;-62
2022/09/22 11:36:43;;;;;;;7.82;3.70;;;17.60;91.90;;;;;;5070439;28;20043;-67
2022/09/22 11:39:17;;;;;;;6.72;3.40;;;17.70;93.10;;;;;;5063564;28;20067;-62
2022/09/22 11:41:56;;;;;;;6.80;3.10;;;17.70;92.10;;;;;;5090740;28;20047;-62
2022/09/22 11:44:25;;;;;;;6.93;3.00;;;17.60;92.00;;;;;;5087150;28;20467;-65
2022/09/22 11:46:59;;;;;;;7.90;3.63;;;17.60;92.50;;;;;;5091392;28;20075;-61
2022/09/22 11:49:53;;;;;;;7.88;3.40;;;17.60;92.20;;;;;;5090672;28;20047;-63
2022/09/22 11:52:42;;;;;;;8.15;3.17;;;17.60;91.90;;;;;;5090824;28;20522;-62
2022/09/22 11:55:35;;;;;;;6.88;3.22;;;17.60;93.40;;;;;;5089338;28;20024;-63
2022/09/22 11:58:08;;;;;;;5.97;3.03;;;17.80;92.70;;;;;;5090100;28;20492;-66
2022/09/22 12:00:41;;;;;;;6.18;3.05;;;17.80;93.50;;;;;;5072137;28;20173;-62
2022/09/22 12:03:15;;;;;;;6.68;3.50;;;17.90;92.70;;;;;;5091389;28;20055;-63
2022/09/22 12:05:53;;;;;;;6.93;2.95;;;18.10;92.60;;;;;;5090703;28;20038;-63
2022/09/22 12:08:35;;;;;;;6.50;3.35;;;18.10;91.60;;;;;;5072690;28;20077;-63
2022/09/22 12:11:04;;;;;;;7.90;2.95;;;18.10;92.40;;;;;;5090687;28;20055;-63
2022/09/22 12:13:32;;;;;;;7.63;3.28;;;18.20;92.00;;;;;;5070993;28;20165;-63
2022/09/22 12:16:01;;;;;;;7.38;2.92;;;18.20;91.50;;;;;;5072436;28;20442;-63
2022/09/22 12:18:32;;;;;;;6.28;3.40;;;18.00;91.40;;;;;;5090102;28;20062;-63
2022/09/22 12:21:03;;;;;;;7.60;3.45;;;17.80;91.60;;;;;;5090159;28;20036;-63
2022/09/22 12:23:32;;;;;;;9.18;3.15;;;17.60;91.20;;;;;;5089496;28;20036;-63
2022/09/22 12:26:05;;;;;;;7.13;3.33;;;17.50;91.30;;;;;;5089974;28;20449;-63
2022/09/22 12:28:40;;;;;;;5.43;2.70;;;17.40;91.70;;;;;;5089964;28;20458;-63
2022/09/22 12:31:11;;;;;;;6.50;3.10;;;17.40;92.40;;;;;;5087090;28;20391;-63
2022/09/22 12:33:58;;;;;;;8.83;3.10;;;17.30;92.40;;;;;;5089847;28;20054;-64
2022/09/22 12:36:34;;;;;;;7.75;2.75;;;17.10;92.10;;;;;;5078522;28;20335;-63
2022/09/22 12:39:17;;;;;;;7.97;3.00;;;17.10;92.20;;;;;;5056457;28;20036;-63
2022/09/22 12:41:46;;;;;;;6.15;2.45;;;17.10;91.90;;;;;;5061694;28;20051;-63
2022/09/22 12:44:17;;;;;;;5.13;2.55;;;17.20;93.10;;;;;;5086857;28;20077;-63
2022/09/22 12:46:44;;;;;;;6.32;2.30;;;17.40;93.40;;;;;;5082714;28;20028;-63
2022/09/22 12:49:16;;;;;;;4.18;2.22;;;17.60;93.50;;;;;;5067728;28;20077;-63
2022/09/22 12:51:41;;;;;;;4.35;2.33;;;17.70;93.10;;;;;;5069755;28;20067;-63
2022/09/22 12:54:22;;;;;;;4.45;2.30;;;17.80;91.60;;;;;;5088317;28;20038;-63
2022/09/22 12:57:10;;;;;;;6.10;2.70;;;17.90;91.20;;;;;;5088694;28;20123;-63
2022/09/22 12:59:36;;;;;;;4.97;2.47;;;18.00;90.50;;;;;;5087776;28;20400;-63
2022/09/22 13:02:16;;;;;;;7.40;2.45;;;18.00;91.40;;;;;;5071633;28;20048;-63
2022/09/22 13:04:48;;;;;;;4.90;2.70;;;18.00;91.20;;;;;;5070807;28;20511;-63
2022/09/22 13:07:38;;;;;;;8.00;2.60;;;17.80;90.10;;;;;;5086811;28;20035;-63
2022/09/22 13:10:22;;;;;;;4.93;2.63;;;17.50;90.40;;;;;;5086394;28;20024;-63
2022/09/22 13:13:04;;;;;;;5.63;2.72;;;17.40;90.90;;;;;;5070625;28;20032;-63
2022/09/22 13:15:36;;;;;;;7.20;2.85;;;17.40;91.40;;;;;;5087849;28;20085;-63
2022/09/22 13:18:02;;;;;;;4.80;2.65;;;17.50;92.40;;;;;;5088685;28;20040;-63
2022/09/22 13:20:33;;;;;;;6.40;3.00;;;17.70;91.90;;;;;;5067072;28;20480;-63
2022/09/22 13:23:12;;;;;;;5.97;2.88;;;17.80;91.40;;;;;;5048757;28;20500;-63
2022/09/22 13:25:41;;;;;;;3.88;2.20;;;18.00;91.50;;;;;;5064394;28;20434;-63
2022/09/22 13:28:21;;;;;;;6.32;2.40;;;18.10;91.80;;;;;;5062171;28;20040;-63
2022/09/22 13:31:18;;;;;;;6.80;2.53;;;18.20;92.00;;;;;;5087245;28;20048;-63